Relevés horaires St-Hubert (Belgique)


Relevés horaires à St-Hubert - Dimanche 01 Juill. 2018
Heure UTC1 Température [°C] Vent [km/h] Hum. [%] Pres.4 [hPa] Visi. [Km] Nébu. [octa] Préc.5 [mm] Cond.
2m. Res. Ros. Dir.2 Vit. Moy. Raf.3
23:00 14.9 14.9 5.3 E 7.4 7.4 13.0 53 1014.9(0.2/3h) 45 0/8 -- --
22:00 16.2 16.2 5.0 E 7.4 9.3 13.0 47 1014.8(0.4/3h) 45 0/8 -- --
21:00 17.2 17.2 4.8 E 7.4 9.3 13.0 44 1014.5(0.5/3h) 45 0/8 -- --
20:00 17.8 17.8 5.2 E 5.6 5.6 9.3 43 1014(0.3/3h) 45 0/8 -- --
19:00 19.8 19.8 6.3 E 5.6 9.3 13.0 41 1013.6(0.3/3h) 45 0/8 -- --
18:00 21.9 21.9 4.4 E 9.3 11.1 16.7 32 1012.9(-0.3/3h) 40 0/8 0/12h
--
17:00 22.9 22.9 4.7 E 7.4 9.3 14.8 31 1012.6(-0.5/3h) 40 0/8 -- --
16:00 23.4 23.4 6.3 E 7.4 9.3 16.7 33 1012.5(-0.6/3h) 35 0/8 -- --
15:00 23.3 23.3 6.0 E 7.4 11.1 16.7 33 1012.9(-0.4/3h) 35 0/8 -- --
14:00 23.4 23.4 7.7 ESE 9.3 11.1 16.7 37 1012.9(-0.5/3h) 35 0/8 -- --
13:00 23.2 23.2 6.8 E 9.3 9.3 16.7 35 1013.2(-0.4/3h) 30 0/8 -- --
12:00 23.0 23.0 7.6 E 7.4 13.0 18.5 37 1013.4(0.0/3h) 35 0/8 0/6h
--
11:00 22.3 22.3 7.9 ESE 9.3 11.1 16.7 40 1013.6(0.2/3h) 35 0/8 -- --
10:00 21.4 21.4 7.2 E 11.1 13.0 18.5 40 1014(0.4/3h) 35 0/8 -- --
09:00 20.4 20.4 7.3 E 11.1 11.1 18.5 43 1013.9(0.5/3h) 30 0/8 -- --
08:00 18.8 18.8 6.6 E 11.1 11.1 18.5 45 1014.2(0.6/3h) 40 0/8 -- --
07:00 17.0 17.0 6.1 E 9.3 11.1 16.7 49 1014.6(0.5/3h) 35 0/8 -- --
06:00 15.1 14.8 5.0 E 9.3 11.1 16.7 51 1014.6(0.2/3h) 35 0/8 0/12h
--
05:00 13.8 13.3 4.2 E 9.3 11.1 14.8 52 1014.7(0.0/3h) 40 0/8 -- --
04:00 13.4 12.8 3.5 E 9.3 11.1 14.8 51 1014.8(0.1/3h) 50 0/8 -- --
03:00 14.4 14 3.5 E 9.3 11.1 16.7 48 1014.6(0.1/3h) 45 0/8 -- --
02:00 15.1 14.8 3.9 E 9.3 11.1 16.7 47 1014.5(0.1/3h) 45 0/8 -- --
01:00 16.0 15.7 4.8 E 11.1 11.1 16.7 47 1014.3(0.2/3h) 45 0/8 -- --
00:00 17.1 17 5.3 E 11.1 11.1 16.7 46 1014(0.4/3h) 45 0/8 0/6h
0/24h
--

1 Coordinated Universal Time. Actuellement il est 12:00 locale et 10:00 UTC.

2 Le vent souffle depuis la direction indiquée vers la direction oposée.

3 Les rafales max. sont disponible 40 min après l'heure du relevé.

4 Pour les stations d'altitude (plus de 600m) le géopotentiel du niveau le plus proche de la pression obligatoire est indiqué.

5 Les stations disposant d'un diffuseur peuvent indiquer "trace". Cela signifie que des précipitations ont touchés le sol mais que la quantité est inférieure à 0.1 mm.

Récapitulatif de la journée
Température [°C] Vent [km/h] Ensoleillement4 [h] Precipitations totale5 [mm] Pression [Hpa]
Min1 Max.2 Moy.3 Max. Min Max.
13.3 23.8 10.4 18.5 0 h 0 min 0 1012.5 1014.9

1 Température minimale relevée entre 18:00 UTC la veille et 18:00 UTC le jour donné.

2 Température maximale relevée entre 06:00 UTC le jour donné et 06:00 UTC le lendemain.

3 Vent moyen de la journée basé sur les relevés horaires.

4 Ensoleillement en heures relevé entre 06:00 UTC la veille et 06:00 UTC le jour donné.

5 Précipitations totales tombées entre 06:00 UTC la jour donné et 06:00 UTC le lendemain.

Graphiques horaires